SBGL/GIG METAR and TAF weather

Enter ICAO airport designator
Station Type Date Time Source
SBGL METAR 2020/08/14 16:00 UTC NOAA

SBGL 141600Z 24010KT 9999 FEW030 31/17 Q1013


Station Type Date Time Source
SBGL Decoded METAR 2020/08/14 16:00 UTC NOAA

Galeao, Brazil (SBGL) 22-49S 043-15W 42M
Aug 14, 2020 - 12:00 PM EDT / 2020.08.14 1600 UTC
Wind: from the WSW (240 degrees) at 12 MPH (10 KT):0
Visibility: greater than 7 mile(s):0
Sky conditions: mostly clear
Temperature: 87 F (31 C)
Dew Point: 62 F (17 C)
Relative Humidity: 43%
Pressure (altimeter): 29.91 in. Hg (1013 hPa)
ob: SBGL 141600Z 24010KT 9999 FEW030 31/17 Q1013
cycle: 16

Station Type Date Time Source
SBGL TAF 2020/08/14 18:51 UTC NOAA

TAF SBGL 141600Z 1418/1524 27010KT CAVOK TN20/1506Z TX33/1518Z
BECMG 1501/1503 17003KT
BECMG 1510/1512 03004KT
RMK PDU

Example: see airport list